Time;durP1;ratioP1;P1;durP2;ratioP2;P2;SDS_P1;SDS_P2;PMS_P1;PMS_P2;Temp;Humidity;BMP_temperature;BMP_pressure;BME280_temperature;BME280_humidity;BME280_pressure;Samples;Min_cycle;Max_cycle;Signal;HPM_P1;HPM_P2
2023/09/04 00:01:40;;;;;;;22.23;20.83;;;;;;;;;;5094820;28;20463;-80
2023/09/04 00:04:07;;;;;;;22.10;20.77;;;;;;;;;;5096151;28;20528;-79
2023/09/04 00:06:35;;;;;;;21.47;20.30;;;;;;;;;;5101937;28;20479;-79
2023/09/04 00:09:04;;;;;;;21.63;20.53;;;;;;;;;;5102125;28;21151;-79
2023/09/04 00:11:32;;;;;;;22.70;21.37;;;;;;;;;;5100892;28;20495;-79
2023/09/04 00:14:01;;;;;;;22.30;21.00;;;;;;;;;;5100949;28;20447;-80
2023/09/04 00:16:28;;;;;;;22.90;21.37;;;;;;;;;;5102473;28;20502;-79
2023/09/04 00:18:55;;;;;;;23.20;21.77;;;;;;;;;;5102661;28;20449;-81
2023/09/04 00:21:22;;;;;;;23.43;22.13;;;;;;;;;;5102088;28;20487;-79
2023/09/04 00:23:49;;;;;;;23.27;21.63;;;;;;;;;;5089348;28;20493;-79
2023/09/04 00:26:17;;;;;;;23.50;22.10;;;;;;;;;;5082107;28;20446;-80
2023/09/04 00:28:45;;;;;;;22.30;21.10;;;;;;;;;;5083179;28;20511;-80
2023/09/04 00:31:12;;;;;;;22.00;20.70;;;;;;;;;;5081490;28;20440;-80
2023/09/04 00:33:39;;;;;;;22.80;21.40;;;;;;;;;;5081654;28;20480;-81
2023/09/04 00:36:07;;;;;;;22.97;21.67;;;;;;;;;;5080994;28;20463;-80
2023/09/04 00:38:34;;;;;;;22.17;20.97;;;;;;;;;;5081372;28;20446;-79
2023/09/04 00:41:01;;;;;;;21.73;20.63;;;;;;;;;;5081268;28;20930;-78
2023/09/04 00:43:36;;;;;;;22.97;21.77;;;;;;;;;;5082961;28;20483;-80
2023/09/04 00:46:04;;;;;;;23.30;22.00;;;;;;;;;;5083691;28;20453;-80
2023/09/04 00:48:32;;;;;;;23.17;21.90;;;;;;;;;;5082446;28;20431;-79
2023/09/04 00:50:59;;;;;;;23.03;21.70;;;;;;;;;;5083001;28;20513;-81
2023/09/04 00:53:27;;;;;;;24.17;22.27;;;;;;;;;;5082094;28;20461;-80
2023/09/04 00:55:54;;;;;;;22.30;21.17;;;;;;;;;;5082098;28;20485;-81
2023/09/04 00:58:22;;;;;;;23.77;22.20;;;;;;;;;;5080839;28;20446;-80
2023/09/04 01:00:49;;;;;;;22.00;20.90;;;;;;;;;;5081249;28;20438;-81
2023/09/04 01:03:18;;;;;;;22.73;21.43;;;;;;;;;;5082669;28;20573;-81
2023/09/04 01:05:45;;;;;;;22.60;21.20;;;;;;;;;;5081142;28;20454;-80
2023/09/04 01:08:13;;;;;;;22.03;20.83;;;;;;;;;;5080689;28;20959;-80
2023/09/04 01:10:42;;;;;;;22.40;21.30;;;;;;;;;;5080357;28;20524;-80
2023/09/04 01:13:13;;;;;;;23.40;21.90;;;;;;;;;;5082387;28;20977;-80
2023/09/04 01:15:41;;;;;;;23.63;22.10;;;;;;;;;;5080770;28;20452;-80
2023/09/04 01:18:08;;;;;;;22.23;21.03;;;;;;;;;;5080029;28;20496;-81
2023/09/04 01:20:37;;;;;;;23.10;21.90;;;;;;;;;;5081122;28;20457;-80
2023/09/04 01:23:04;;;;;;;22.57;21.17;;;;;;;;;;5081030;28;20473;-81
2023/09/04 01:25:36;;;;;;;23.30;22.00;;;;;;;;;;5079914;28;20445;-80
2023/09/04 01:28:06;;;;;;;22.87;21.60;;;;;;;;;;5079777;28;20442;-81
2023/09/04 01:30:38;;;;;;;22.00;20.90;;;;;;;;;;5078479;28;20894;-80
2023/09/04 01:33:06;;;;;;;22.30;21.00;;;;;;;;;;5078829;28;20444;-80
2023/09/04 01:35:34;;;;;;;22.57;21.30;;;;;;;;;;5078927;28;20452;-80
2023/09/04 01:38:04;;;;;;;22.03;20.80;;;;;;;;;;5080516;28;20975;-80
2023/09/04 01:40:31;;;;;;;22.40;21.20;;;;;;;;;;5079822;28;20427;-81
2023/09/04 01:42:58;;;;;;;22.10;20.90;;;;;;;;;;5079475;28;21060;-81
2023/09/04 01:45:25;;;;;;;22.37;21.17;;;;;;;;;;5080189;28;20446;-81
2023/09/04 01:47:52;;;;;;;22.70;21.33;;;;;;;;;;5080046;28;20458;-81
2023/09/04 01:50:20;;;;;;;22.23;21.13;;;;;;;;;;5080354;28;20486;-81
2023/09/04 01:52:47;;;;;;;22.47;21.27;;;;;;;;;;5079520;28;20465;-80
2023/09/04 01:55:15;;;;;;;21.60;20.37;;;;;;;;;;5079273;28;20569;-80
2023/09/04 01:57:42;;;;;;;22.93;21.50;;;;;;;;;;5080072;28;20428;-80
2023/09/04 02:00:10;;;;;;;21.93;20.70;;;;;;;;;;5080193;28;20444;-80
2023/09/04 02:02:37;;;;;;;21.67;20.30;;;;;;;;;;5099114;28;20454;-80
2023/09/04 02:05:05;;;;;;;22.80;21.30;;;;;;;;;;5099664;28;20427;-80
2023/09/04 02:07:32;;;;;;;21.57;20.37;;;;;;;;;;5099852;28;20419;-80
2023/09/04 02:09:59;;;;;;;21.50;20.30;;;;;;;;;;5098539;28;20411;-81
2023/09/04 02:12:27;;;;;;;22.07;20.80;;;;;;;;;;5098586;28;20450;-80
2023/09/04 02:14:54;;;;;;;22.40;21.30;;;;;;;;;;5099540;28;20496;-81
2023/09/04 02:17:21;;;;;;;22.67;21.47;;;;;;;;;;5100166;28;20492;-80
2023/09/04 02:19:49;;;;;;;21.93;20.73;;;;;;;;;;5098862;28;20415;-81
2023/09/04 02:22:16;;;;;;;22.10;21.00;;;;;;;;;;5100565;28;20439;-80
2023/09/04 02:24:46;;;;;;;21.77;20.53;;;;;;;;;;5101603;28;20431;-81
2023/09/04 02:27:13;;;;;;;23.17;21.47;;;;;;;;;;5099808;28;20933;-80
2023/09/04 02:29:41;;;;;;;21.70;20.60;;;;;;;;;;5100406;28;20484;-81
2023/09/04 02:32:08;;;;;;;21.80;20.43;;;;;;;;;;5100721;28;20457;-80
2023/09/04 02:34:36;;;;;;;21.67;20.57;;;;;;;;;;5099435;28;20412;-80
2023/09/04 02:37:03;;;;;;;21.43;20.23;;;;;;;;;;5099929;28;20458;-80
2023/09/04 02:39:31;;;;;;;21.50;20.40;;;;;;;;;;5100297;28;20497;-80
2023/09/04 02:41:58;;;;;;;22.77;21.67;;;;;;;;;;5099277;28;20426;-81
2023/09/04 02:44:29;;;;;;;21.30;20.20;;;;;;;;;;5099361;28;20437;-80
2023/09/04 02:46:58;;;;;;;23.50;21.80;;;;;;;;;;5098605;28;20447;-80
2023/09/04 02:49:25;;;;;;;23.20;21.90;;;;;;;;;;5101034;28;20428;-80
2023/09/04 02:51:52;;;;;;;23.53;22.03;;;;;;;;;;5099815;28;20463;-81
2023/09/04 02:54:19;;;;;;;23.50;22.00;;;;;;;;;;5099401;28;20937;-80
2023/09/04 02:56:46;;;;;;;22.43;21.10;;;;;;;;;;5098361;28;20492;-80
2023/09/04 02:59:14;;;;;;;26.10;24.23;;;;;;;;;;5097806;28;20459;-79
2023/09/04 03:01:41;;;;;;;23.57;22.27;;;;;;;;;;5097674;28;20465;-81
2023/09/04 03:04:09;;;;;;;24.70;23.30;;;;;;;;;;5098037;28;20431;-80
2023/09/04 03:06:38;;;;;;;23.17;21.30;;;;;;;;;;5095930;28;20921;-80
2023/09/04 03:09:05;;;;;;;23.43;21.93;;;;;;;;;;5097396;28;20427;-80
2023/09/04 03:11:32;;;;;;;23.37;21.97;;;;;;;;;;5111248;28;20453;-81
2023/09/04 03:14:00;;;;;;;23.73;22.47;;;;;;;;;;5102095;28;20466;-80
2023/09/04 03:16:27;;;;;;;24.00;22.60;;;;;;;;;;5097316;28;20880;-81
2023/09/04 03:18:55;;;;;;;22.60;21.40;;;;;;;;;;5096709;28;20547;-80
2023/09/04 03:21:23;;;;;;;21.93;20.73;;;;;;;;;;5097666;28;20942;-80
2023/09/04 03:23:51;;;;;;;23.20;22.00;;;;;;;;;;5097275;28;20447;-80
2023/09/04 03:26:18;;;;;;;23.27;21.97;;;;;;;;;;5096963;28;20441;-80
2023/09/04 03:28:45;;;;;;;25.00;23.40;;;;;;;;;;5097829;28;20423;-80
2023/09/04 03:31:15;;;;;;;23.97;22.60;;;;;;;;;;5097697;28;21226;-80
2023/09/04 03:33:43;;;;;;;24.40;23.00;;;;;;;;;;5098811;28;20456;-80
2023/09/04 03:36:11;;;;;;;25.70;23.73;;;;;;;;;;5098371;28;20477;-80
2023/09/04 03:38:40;;;;;;;24.67;23.10;;;;;;;;;;5098871;28;20464;-80
2023/09/04 03:41:07;;;;;;;25.33;23.53;;;;;;;;;;5097856;28;20830;-81
2023/09/04 03:43:35;;;;;;;25.10;23.57;;;;;;;;;;5099128;28;20440;-80
2023/09/04 03:46:02;;;;;;;25.57;24.00;;;;;;;;;;5098810;28;20445;-81
2023/09/04 03:48:29;;;;;;;26.37;24.57;;;;;;;;;;5099173;28;20518;-81
2023/09/04 03:50:59;;;;;;;24.20;22.83;;;;;;;;;;5097679;28;20453;-80
2023/09/04 03:53:28;;;;;;;24.70;23.30;;;;;;;;;;5098979;28;20494;-80
2023/09/04 03:56:04;;;;;;;25.70;24.30;;;;;;;;;;5098477;28;20447;-81
2023/09/04 03:58:31;;;;;;;25.90;24.03;;;;;;;;;;5098477;28;20425;-81
2023/09/04 04:00:59;;;;;;;24.47;23.07;;;;;;;;;;5098461;28;20439;-81
2023/09/04 04:03:26;;;;;;;23.87;22.47;;;;;;;;;;5099566;28;20469;-80
2023/09/04 04:05:53;;;;;;;24.70;23.20;;;;;;;;;;5087554;28;20450;-80
2023/09/04 04:08:20;;;;;;;23.40;21.97;;;;;;;;;;5078105;28;20503;-80
2023/09/04 04:10:47;;;;;;;24.47;23.07;;;;;;;;;;5078431;28;20525;-81
2023/09/04 04:13:16;;;;;;;22.20;20.90;;;;;;;;;;5079470;28;20480;-79
2023/09/04 04:15:45;;;;;;;25.17;23.47;;;;;;;;;;5078805;28;20442;-80
2023/09/04 04:18:12;;;;;;;23.90;22.60;;;;;;;;;;5078706;28;20450;-80
2023/09/04 04:20:42;;;;;;;23.47;22.07;;;;;;;;;;5081430;28;20474;-80
2023/09/04 04:23:10;;;;;;;23.13;21.83;;;;;;;;;;5081513;28;20466;-80
2023/09/04 04:25:37;;;;;;;22.17;20.87;;;;;;;;;;5082365;28;20532;-81
2023/09/04 04:28:04;;;;;;;23.40;21.40;;;;;;;;;;5081844;28;20935;-80
2023/09/04 04:30:34;;;;;;;22.33;21.13;;;;;;;;;;5080634;28;20797;-80
2023/09/04 04:33:01;;;;;;;24.00;22.40;;;;;;;;;;5081438;28;20502;-81
2023/09/04 04:35:28;;;;;;;22.87;21.60;;;;;;;;;;5081446;28;20417;-80
2023/09/04 04:37:55;;;;;;;22.60;21.20;;;;;;;;;;5078440;28;20481;-80
2023/09/04 04:40:22;;;;;;;23.13;21.73;;;;;;;;;;5077274;28;20967;-80
2023/09/04 04:42:49;;;;;;;23.30;22.00;;;;;;;;;;5077114;28;20440;-80
2023/09/04 04:45:16;;;;;;;23.27;21.97;;;;;;;;;;5077522;28;20450;-81
2023/09/04 04:47:45;;;;;;;23.10;21.70;;;;;;;;;;5077399;28;20472;-81
2023/09/04 04:50:12;;;;;;;23.90;22.50;;;;;;;;;;5077751;28;20788;-81
2023/09/04 04:52:39;;;;;;;28.00;26.20;;;;;;;;;;5077815;28;20444;-81
2023/09/04 04:55:07;;;;;;;23.30;21.90;;;;;;;;;;5077592;28;20446;-81
2023/09/04 04:57:34;;;;;;;22.73;21.53;;;;;;;;;;5077217;28;20463;-80
2023/09/04 05:00:06;;;;;;;24.03;22.67;;;;;;;;;;5076458;28;20509;-79
2023/09/04 05:02:33;;;;;;;22.80;21.40;;;;;;;;;;5085288;27;20508;-80
2023/09/04 05:05:02;;;;;;;22.97;21.37;;;;;;;;;;5076429;28;20396;-80
2023/09/04 05:07:29;;;;;;;22.77;21.57;;;;;;;;;;5077072;28;20506;-79
2023/09/04 05:09:56;;;;;;;22.80;21.50;;;;;;;;;;5076073;28;20961;-79
2023/09/04 05:12:24;;;;;;;23.90;22.43;;;;;;;;;;5076717;28;20894;-81
2023/09/04 05:14:51;;;;;;;23.83;22.43;;;;;;;;;;5076256;28;20486;-78
2023/09/04 05:17:18;;;;;;;22.97;21.67;;;;;;;;;;5088705;28;20452;-79
2023/09/04 05:19:45;;;;;;;22.77;21.43;;;;;;;;;;5073543;28;20454;-79
2023/09/04 05:22:14;;;;;;;22.90;21.60;;;;;;;;;;5073955;28;20448;-78
2023/09/04 05:24:41;;;;;;;23.07;21.67;;;;;;;;;;5073571;28;20425;-78
2023/09/04 05:27:08;;;;;;;24.13;22.43;;;;;;;;;;5075449;28;20449;-79
2023/09/04 05:29:35;;;;;;;22.37;21.23;;;;;;;;;;5080552;28;20425;-78
2023/09/04 05:32:02;;;;;;;23.50;22.00;;;;;;;;;;5076812;28;20420;-78
2023/09/04 05:34:29;;;;;;;23.73;22.40;;;;;;;;;;5073045;28;20945;-78
2023/09/04 05:36:56;;;;;;;23.47;22.17;;;;;;;;;;5072954;28;20467;-79
2023/09/04 05:39:25;;;;;;;22.47;21.27;;;;;;;;;;5073493;28;20438;-79
2023/09/04 05:41:52;;;;;;;22.80;21.60;;;;;;;;;;5072367;28;20420;-78
2023/09/04 05:44:19;;;;;;;22.80;21.60;;;;;;;;;;5073241;28;20428;-78
2023/09/04 05:46:46;;;;;;;23.30;22.00;;;;;;;;;;5072896;28;20468;-78
2023/09/04 05:49:13;;;;;;;23.83;22.53;;;;;;;;;;5073278;28;20424;-78
2023/09/04 05:51:40;;;;;;;22.73;21.40;;;;;;;;;;5072371;28;20454;-79
2023/09/04 05:54:07;;;;;;;23.57;22.07;;;;;;;;;;5072752;28;20454;-79
2023/09/04 05:56:36;;;;;;;23.10;21.60;;;;;;;;;;5072608;28;20462;-79
2023/09/04 05:59:05;;;;;;;23.13;21.53;;;;;;;;;;5072629;28;20428;-79
2023/09/04 06:01:32;;;;;;;22.00;20.80;;;;;;;;;;5077685;28;20518;-79
2023/09/04 06:03:59;;;;;;;22.43;21.17;;;;;;;;;;5092062;28;20476;-78
2023/09/04 06:06:26;;;;;;;22.03;20.53;;;;;;;;;;5092595;28;20843;-79
2023/09/04 06:08:53;;;;;;;21.17;19.97;;;;;;;;;;5093481;28;20437;-78
2023/09/04 06:11:20;;;;;;;20.43;19.33;;;;;;;;;;5096746;28;20836;-85
2023/09/04 06:13:49;;;;;;;20.00;18.90;;;;;;;;;;5098175;28;20439;-77
2023/09/04 06:16:16;;;;;;;20.73;19.53;;;;;;;;;;5092152;28;20437;-78
2023/09/04 06:18:43;;;;;;;20.30;19.10;;;;;;;;;;5092972;28;20804;-78
2023/09/04 06:21:10;;;;;;;20.73;19.53;;;;;;;;;;5091910;28;20484;-78
2023/09/04 06:23:37;;;;;;;19.93;18.80;;;;;;;;;;5093834;28;20436;-81
2023/09/04 06:26:04;;;;;;;19.23;18.23;;;;;;;;;;5093627;28;20462;-78
2023/09/04 06:28:31;;;;;;;19.87;18.73;;;;;;;;;;5093896;28;20437;-79
2023/09/04 06:31:00;;;;;;;19.17;18.20;;;;;;;;;;5092275;28;20456;-80
2023/09/04 06:33:27;;;;;;;19.73;18.60;;;;;;;;;;5073349;28;20494;-78
2023/09/04 06:35:54;;;;;;;19.53;18.10;;;;;;;;;;5076315;28;20976;-86
2023/09/04 06:38:21;;;;;;;19.80;18.70;;;;;;;;;;5079040;28;20505;-85
2023/09/04 06:40:50;;;;;;;19.13;18.13;;;;;;;;;;5079088;28;20427;-83
2023/09/04 06:43:17;;;;;;;20.03;18.77;;;;;;;;;;5077838;28;20458;-78
2023/09/04 06:45:44;;;;;;;19.73;18.33;;;;;;;;;;5080416;28;20435;-86
2023/09/04 06:48:12;;;;;;;18.30;17.30;;;;;;;;;;5072139;28;20452;-78
2023/09/04 06:50:39;;;;;;;19.60;18.40;;;;;;;;;;5075551;28;20420;-79
2023/09/04 06:53:06;;;;;;;19.90;18.70;;;;;;;;;;5112771;28;20521;-78
2023/09/04 06:55:34;;;;;;;19.90;18.70;;;;;;;;;;5113127;28;20423;-78
2023/09/04 06:58:01;;;;;;;20.13;19.03;;;;;;;;;;5113568;28;20544;-80
2023/09/04 07:00:28;;;;;;;18.47;17.40;;;;;;;;;;5120779;28;20442;-85
2023/09/04 07:02:55;;;;;;;19.90;18.60;;;;;;;;;;5125152;28;20426;-86
2023/09/04 07:05:24;;;;;;;18.97;17.87;;;;;;;;;;5121871;28;20459;-88
2023/09/04 07:07:51;;;;;;;18.93;17.93;;;;;;;;;;5119392;28;20406;-86
2023/09/04 07:10:18;;;;;;;18.70;17.80;;;;;;;;;;5121134;28;20436;-86
2023/09/04 07:12:45;;;;;;;19.80;18.70;;;;;;;;;;5120772;28;20427;-84
2023/09/04 07:15:12;;;;;;;19.70;18.50;;;;;;;;;;5122857;28;20804;-87
2023/09/04 07:17:39;;;;;;;19.60;18.43;;;;;;;;;;5120842;28;20475;-87
2023/09/04 07:20:07;;;;;;;20.77;19.40;;;;;;;;;;5124364;28;20439;-86
2023/09/04 07:22:36;;;;;;;19.87;18.67;;;;;;;;;;5116004;28;20445;-79
2023/09/04 07:25:03;;;;;;;19.60;18.40;;;;;;;;;;5091563;28;20435;-77
2023/09/04 07:27:30;;;;;;;19.87;18.77;;;;;;;;;;5094092;28;20428;-86
2023/09/04 07:29:58;;;;;;;19.73;18.63;;;;;;;;;;5092182;28;20862;-77
2023/09/04 07:32:26;;;;;;;19.70;18.60;;;;;;;;;;5094913;28;20440;-79
2023/09/04 07:34:55;;;;;;;19.30;18.30;;;;;;;;;;5095890;28;20437;-80
2023/09/04 07:37:22;;;;;;;19.63;18.53;;;;;;;;;;5094932;28;20467;-77
2023/09/04 07:39:52;;;;;;;19.60;18.60;;;;;;;;;;5092042;28;20417;-79
2023/09/04 07:42:19;;;;;;;20.13;18.90;;;;;;;;;;5091608;28;20473;-79
2023/09/04 07:44:46;;;;;;;20.10;18.93;;;;;;;;;;5091311;28;20416;-78
2023/09/04 07:47:13;;;;;;;20.03;18.90;;;;;;;;;;5105866;28;20422;-78
2023/09/04 07:49:40;;;;;;;19.83;18.40;;;;;;;;;;5111665;28;20456;-79
2023/09/04 07:52:07;;;;;;;19.80;18.50;;;;;;;;;;5116061;28;20454;-84
2023/09/04 07:54:35;;;;;;;19.23;18.23;;;;;;;;;;5119242;28;20448;-89
2023/09/04 07:57:04;;;;;;;20.30;19.10;;;;;;;;;;5119683;28;20838;-86
2023/09/04 07:59:31;;;;;;;20.40;19.20;;;;;;;;;;5124873;27;20472;-80
2023/09/04 08:01:58;;;;;;;20.53;19.33;;;;;;;;;;5114654;28;20491;-84
2023/09/04 08:04:25;;;;;;;20.40;19.23;;;;;;;;;;5128961;28;20410;-84
2023/09/04 08:06:52;;;;;;;19.63;18.60;;;;;;;;;;5124770;28;20444;-83
2023/09/04 08:09:19;;;;;;;20.27;19.07;;;;;;;;;;5110142;28;20445;-85
2023/09/04 08:11:46;;;;;;;19.80;18.60;;;;;;;;;;5096198;28;20424;-84
2023/09/04 08:14:15;;;;;;;19.70;18.67;;;;;;;;;;5107073;28;20447;-85
2023/09/04 08:16:42;;;;;;;20.50;19.40;;;;;;;;;;5108733;28;20449;-85
2023/09/04 08:19:09;;;;;;;21.73;20.40;;;;;;;;;;5107769;28;20454;-86
2023/09/04 08:21:36;;;;;;;21.20;20.00;;;;;;;;;;5100956;28;20452;-78
2023/09/04 08:24:03;;;;;;;21.63;20.43;;;;;;;;;;5094768;28;20472;-78
2023/09/04 08:26:30;;;;;;;20.30;19.10;;;;;;;;;;5095158;28;20408;-78
2023/09/04 08:28:57;;;;;;;21.10;19.80;;;;;;;;;;5099205;28;20444;-87
2023/09/04 08:31:26;;;;;;;20.50;19.30;;;;;;;;;;5096631;28;20440;-78
2023/09/04 08:33:53;;;;;;;20.63;19.43;;;;;;;;;;5095555;28;20447;-79
2023/09/04 08:36:20;;;;;;;20.70;19.50;;;;;;;;;;5100140;28;20424;-83
2023/09/04 08:38:47;;;;;;;21.10;19.90;;;;;;;;;;5103104;28;20542;-82
2023/09/04 08:41:15;;;;;;;21.00;19.90;;;;;;;;;;5102691;28;20806;-81
2023/09/04 08:43:43;;;;;;;20.30;19.20;;;;;;;;;;5098798;28;20472;-78
2023/09/04 08:46:11;;;;;;;21.53;20.33;;;;;;;;;;5094687;28;20447;-78
2023/09/04 08:48:40;;;;;;;20.80;19.70;;;;;;;;;;5094726;28;20915;-78
2023/09/04 08:51:08;;;;;;;22.60;21.30;;;;;;;;;;5094054;28;20444;-78
2023/09/04 08:53:36;;;;;;;21.63;20.37;;;;;;;;;;5094025;28;20427;-78
2023/09/04 08:56:04;;;;;;;20.73;19.63;;;;;;;;;;5093498;28;20481;-79
2023/09/04 08:58:31;;;;;;;22.17;20.63;;;;;;;;;;5094388;28;20972;-79
2023/09/04 09:00:58;;;;;;;21.73;20.50;;;;;;;;;;5095048;28;20457;-80
2023/09/04 09:03:25;;;;;;;21.67;20.47;;;;;;;;;;5095799;28;20891;-79
2023/09/04 09:05:56;;;;;;;21.70;20.50;;;;;;;;;;5095552;28;20908;-79
2023/09/04 09:08:24;;;;;;;22.50;21.20;;;;;;;;;;5095669;28;20479;-79
2023/09/04 09:10:52;;;;;;;21.90;20.70;;;;;;;;;;5095417;28;20476;-79
2023/09/04 09:13:21;;;;;;;21.53;20.40;;;;;;;;;;5097862;28;20519;-79
2023/09/04 09:15:48;;;;;;;21.90;20.60;;;;;;;;;;5099584;28;20788;-86
2023/09/04 09:18:35;;;;;;;22.47;21.20;;;;;;;;;;5099148;28;20856;-79
2023/09/04 09:21:21;;;;;;;22.50;21.10;;;;;;;;;;5096129;28;20508;-78
2023/09/04 09:23:48;;;;;;;23.80;22.40;;;;;;;;;;5094554;28;20465;-79
2023/09/04 09:26:15;;;;;;;22.17;20.77;;;;;;;;;;5099279;28;20466;-86
2023/09/04 09:28:43;;;;;;;22.60;21.40;;;;;;;;;;5100383;28;20437;-87
2023/09/04 09:31:10;;;;;;;22.97;21.43;;;;;;;;;;5099782;28;20423;-82
2023/09/04 09:33:40;;;;;;;22.20;20.87;;;;;;;;;;5103835;28;20447;-83
2023/09/04 09:36:14;;;;;;;21.63;20.33;;;;;;;;;;5103962;28;20443;-83
2023/09/04 09:38:45;;;;;;;21.53;20.13;;;;;;;;;;5083168;28;20907;-82
2023/09/04 09:41:13;;;;;;;21.73;20.43;;;;;;;;;;5082888;28;20420;-83
2023/09/04 09:43:42;;;;;;;22.83;21.53;;;;;;;;;;5082560;28;20425;-82
2023/09/04 09:46:09;;;;;;;21.90;20.40;;;;;;;;;;5081496;28;20433;-83
2023/09/04 09:48:36;;;;;;;22.70;21.30;;;;;;;;;;5080755;28;20454;-80
2023/09/04 09:51:06;;;;;;;22.80;21.40;;;;;;;;;;5078164;28;20519;-80
2023/09/04 09:53:46;;;;;;;22.90;21.43;;;;;;;;;;5081158;28;20559;-80
2023/09/04 09:56:13;;;;;;;22.63;21.33;;;;;;;;;;5077399;28;20434;-80
2023/09/04 09:58:41;;;;;;;22.20;21.00;;;;;;;;;;5075467;28;20456;-80
2023/09/04 10:01:09;;;;;;;22.07;20.77;;;;;;;;;;5073869;28;20481;-79
2023/09/04 10:03:36;;;;;;;21.10;19.90;;;;;;;;;;5083230;28;20503;-79
2023/09/04 10:06:05;;;;;;;22.90;21.50;;;;;;;;;;5095277;28;20423;-79
2023/09/04 10:08:34;;;;;;;23.10;21.60;;;;;;;;;;5094690;28;20980;-80
2023/09/04 10:11:04;;;;;;;22.47;21.17;;;;;;;;;;5094849;28;20537;-80
2023/09/04 10:13:34;;;;;;;21.67;20.47;;;;;;;;;;5095482;28;20526;-79
2023/09/04 10:16:03;;;;;;;21.80;20.50;;;;;;;;;;5094720;28;20431;-80
2023/09/04 10:18:31;;;;;;;23.50;22.20;;;;;;;;;;5094954;28;20936;-80
2023/09/04 10:20:59;;;;;;;23.70;22.20;;;;;;;;;;5094230;28;20455;-81
2023/09/04 10:23:28;;;;;;;23.90;22.30;;;;;;;;;;5094568;28;20847;-80
2023/09/04 10:26:01;;;;;;;23.23;21.93;;;;;;;;;;5090683;28;20407;-80
2023/09/04 10:28:35;;;;;;;25.27;23.60;;;;;;;;;;5094579;28;20949;-79
2023/09/04 10:31:02;;;;;;;24.20;22.90;;;;;;;;;;5094185;28;21008;-80
2023/09/04 10:33:29;;;;;;;23.43;22.13;;;;;;;;;;5094967;28;20469;-80
2023/09/04 10:35:58;;;;;;;22.67;21.37;;;;;;;;;;5094496;28;20409;-81
2023/09/04 10:38:25;;;;;;;23.70;22.30;;;;;;;;;;5098426;28;20489;-82
2023/09/04 10:40:53;;;;;;;23.07;21.77;;;;;;;;;;5095177;28;20509;-81
2023/09/04 10:43:20;;;;;;;23.20;21.87;;;;;;;;;;5097296;28;20472;-83
2023/09/04 10:46:02;;;;;;;22.63;21.37;;;;;;;;;;5097191;28;20437;-82
2023/09/04 10:48:42;;;;;;;23.43;21.93;;;;;;;;;;5096371;28;20960;-81
2023/09/04 10:51:26;;;;;;;24.00;22.70;;;;;;;;;;5096380;28;20425;-81
2023/09/04 10:53:53;;;;;;;24.50;22.90;;;;;;;;;;5096340;28;20415;-79
2023/09/04 10:56:20;;;;;;;22.37;21.07;;;;;;;;;;5096721;28;20422;-83
2023/09/04 10:58:59;;;;;;;22.77;21.47;;;;;;;;;;5095852;28;20489;-80
2023/09/04 11:01:32;;;;;;;22.60;21.30;;;;;;;;;;5094877;28;20453;-82
2023/09/04 11:04:02;;;;;;;23.17;21.77;;;;;;;;;;5096313;28;20504;-82
2023/09/04 11:06:30;;;;;;;21.83;20.53;;;;;;;;;;5096109;28;20459;-79
2023/09/04 11:08:57;;;;;;;24.27;22.87;;;;;;;;;;5097154;28;20412;-83
2023/09/04 11:11:27;;;;;;;23.87;22.37;;;;;;;;;;5096292;28;20980;-82
2023/09/04 11:13:58;;;;;;;23.47;22.00;;;;;;;;;;5096861;28;20473;-82
2023/09/04 11:16:25;;;;;;;23.80;22.47;;;;;;;;;;5096641;28;20429;-82
2023/09/04 11:19:03;;;;;;;23.10;21.60;;;;;;;;;;5096171;28;20508;-82
2023/09/04 11:21:34;;;;;;;23.50;22.10;;;;;;;;;;5096807;28;20428;-82
2023/09/04 11:24:01;;;;;;;23.00;21.50;;;;;;;;;;5097964;28;20464;-85
2023/09/04 11:26:30;;;;;;;23.43;22.13;;;;;;;;;;5100350;28;20423;-85
2023/09/04 11:29:04;;;;;;;22.77;21.47;;;;;;;;;;5094624;28;20481;-80
2023/09/04 11:31:32;;;;;;;22.70;21.40;;;;;;;;;;5099659;28;20437;-82
2023/09/04 11:33:59;;;;;;;23.17;21.77;;;;;;;;;;5103132;28;20951;-81
2023/09/04 11:36:28;;;;;;;23.23;21.90;;;;;;;;;;5102689;28;20427;-81
2023/09/04 11:39:05;;;;;;;23.53;22.03;;;;;;;;;;5103086;28;20491;-80
2023/09/04 11:41:32;;;;;;;21.90;20.70;;;;;;;;;;5103090;28;20415;-81
2023/09/04 11:44:00;;;;;;;22.47;21.17;;;;;;;;;;5102280;28;20460;-81
2023/09/04 11:46:27;;;;;;;22.63;21.33;;;;;;;;;;5103150;28;20408;-82
2023/09/04 11:48:54;;;;;;;22.13;20.93;;;;;;;;;;5103806;28;20506;-81
2023/09/04 11:51:21;;;;;;;22.77;21.43;;;;;;;;;;5102612;28;20444;-81
2023/09/04 11:53:50;;;;;;;22.40;21.10;;;;;;;;;;5103324;28;20475;-81
2023/09/04 11:56:17;;;;;;;22.40;21.10;;;;;;;;;;5103393;28;20448;-81
2023/09/04 11:58:44;;;;;;;22.50;21.20;;;;;;;;;;5103242;28;20496;-81
2023/09/04 12:01:11;;;;;;;22.87;21.43;;;;;;;;;;5102993;28;20791;-81
2023/09/04 12:03:38;;;;;;;22.70;21.40;;;;;;;;;;5103252;28;20427;-81
2023/09/04 12:06:05;;;;;;;22.73;21.40;;;;;;;;;;5103551;28;20419;-81
2023/09/04 12:08:32;;;;;;;23.17;21.87;;;;;;;;;;5103067;28;20925;-81
2023/09/04 12:11:00;;;;;;;23.23;21.83;;;;;;;;;;5102284;28;20459;-81
2023/09/04 12:13:27;;;;;;;22.40;21.10;;;;;;;;;;5102417;28;20431;-80
2023/09/04 12:16:05;;;;;;;22.80;21.50;;;;;;;;;;5102214;28;20436;-80
2023/09/04 12:18:35;;;;;;;22.93;21.63;;;;;;;;;;5102427;28;20483;-81
2023/09/04 12:21:02;;;;;;;23.27;21.83;;;;;;;;;;5101891;28;20447;-82
2023/09/04 12:23:44;;;;;;;23.07;21.87;;;;;;;;;;5101138;28;20483;-81
2023/09/04 12:26:13;;;;;;;23.40;22.00;;;;;;;;;;5082207;28;20428;-82
2023/09/04 12:28:41;;;;;;;23.10;21.80;;;;;;;;;;5082900;28;20540;-85
2023/09/04 12:31:08;;;;;;;22.73;21.43;;;;;;;;;;5081216;28;20505;-84
2023/09/04 12:33:38;;;;;;;22.30;21.03;;;;;;;;;;5078452;28;20440;-82
2023/09/04 12:36:06;;;;;;;23.40;22.03;;;;;;;;;;5094648;28;20408;-80
2023/09/04 12:38:35;;;;;;;23.97;22.57;;;;;;;;;;5094632;28;20439;-79
2023/09/04 12:41:02;;;;;;;23.03;21.63;;;;;;;;;;5095426;28;20422;-79
2023/09/04 12:43:30;;;;;;;23.30;21.90;;;;;;;;;;5094988;28;20461;-79
2023/09/04 12:45:57;;;;;;;23.30;21.90;;;;;;;;;;5096164;28;20433;-79
2023/09/04 12:48:24;;;;;;;23.40;22.00;;;;;;;;;;5096019;28;20492;-79
2023/09/04 12:50:51;;;;;;;23.00;21.60;;;;;;;;;;5095783;28;20982;-79
2023/09/04 12:53:18;;;;;;;23.47;21.87;;;;;;;;;;5095275;28;20980;-79
2023/09/04 12:55:45;;;;;;;22.63;21.30;;;;;;;;;;5095300;28;20449;-79
2023/09/04 12:58:13;;;;;;;22.47;21.17;;;;;;;;;;5095736;28;20452;-79
2023/09/04 13:00:42;;;;;;;23.03;21.57;;;;;;;;;;5094419;28;20480;-79
2023/09/04 13:03:10;;;;;;;23.47;21.73;;;;;;;;;;5095312;28;21046;-79
2023/09/04 13:05:37;;;;;;;22.63;21.33;;;;;;;;;;5095674;28;20449;-79
2023/09/04 13:08:04;;;;;;;24.00;22.60;;;;;;;;;;5094040;27;20890;-79
2023/09/04 13:10:31;;;;;;;22.07;20.77;;;;;;;;;;5090094;28;20424;-78
2023/09/04 13:12:58;;;;;;;22.70;21.30;;;;;;;;;;5073303;28;20445;-79
2023/09/04 13:15:25;;;;;;;25.27;23.70;;;;;;;;;;5075485;28;20434;-80
2023/09/04 13:17:54;;;;;;;23.13;21.63;;;;;;;;;;5084462;28;21013;-79
2023/09/04 13:20:21;;;;;;;23.43;21.97;;;;;;;;;;5094183;28;20481;-79
2023/09/04 13:22:49;;;;;;;23.93;22.43;;;;;;;;;;5093908;28;20471;-79
2023/09/04 13:25:16;;;;;;;24.60;22.73;;;;;;;;;;5094895;28;20456;-79
2023/09/04 13:27:43;;;;;;;23.03;21.73;;;;;;;;;;5095070;28;20469;-80
2023/09/04 13:30:10;;;;;;;23.07;21.67;;;;;;;;;;5094779;28;20452;-79
2023/09/04 13:32:37;;;;;;;23.70;22.20;;;;;;;;;;5094636;28;20471;-79
2023/09/04 13:35:07;;;;;;;22.57;21.20;;;;;;;;;;5095045;28;20437;-79
2023/09/04 13:37:35;;;;;;;23.70;21.83;;;;;;;;;;5094875;28;20453;-78
2023/09/04 13:40:03;;;;;;;23.50;21.93;;;;;;;;;;5076411;28;20496;-81
2023/09/04 13:42:30;;;;;;;23.23;21.87;;;;;;;;;;5074958;28;20492;-79
2023/09/04 13:44:58;;;;;;;22.60;21.20;;;;;;;;;;5073533;28;20446;-79
2023/09/04 13:47:26;;;;;;;23.90;22.30;;;;;;;;;;5072697;28;20860;-78
2023/09/04 13:49:54;;;;;;;22.73;21.33;;;;;;;;;;5071119;28;20952;-77
2023/09/04 13:52:22;;;;;;;24.37;22.77;;;;;;;;;;5071960;28;20469;-77
2023/09/04 13:54:51;;;;;;;24.00;22.60;;;;;;;;;;5071877;28;20458;-77
2023/09/04 13:57:18;;;;;;;23.10;21.70;;;;;;;;;;5071939;28;20549;-77
2023/09/04 13:59:46;;;;;;;23.47;21.90;;;;;;;;;;5071061;28;21036;-77
2023/09/04 14:02:13;;;;;;;23.90;22.30;;;;;;;;;;5071911;28;20491;-77
2023/09/04 14:04:40;;;;;;;24.47;22.73;;;;;;;;;;5072081;28;20495;-80
2023/09/04 14:07:07;;;;;;;24.10;22.70;;;;;;;;;;5083244;28;20469;-78
2023/09/04 14:09:36;;;;;;;23.70;22.30;;;;;;;;;;5090961;28;20515;-78
2023/09/04 14:12:03;;;;;;;23.67;22.37;;;;;;;;;;5090813;28;20448;-77
2023/09/04 14:14:30;;;;;;;23.07;21.77;;;;;;;;;;5091617;28;20790;-77
2023/09/04 14:16:57;;;;;;;24.13;22.63;;;;;;;;;;5091146;28;20436;-78
2023/09/04 14:19:24;;;;;;;23.70;22.40;;;;;;;;;;5091452;28;20500;-78
2023/09/04 14:21:52;;;;;;;23.80;22.50;;;;;;;;;;5091371;28;20449;-77